Time;durP1;ratioP1;P1;durP2;ratioP2;P2;SDS_P1;SDS_P2;PMS_P1;PMS_P2;Temp;Humidity;BMP_temperature;BMP_pressure;BME280_temperature;BME280_humidity;BME280_pressure;Samples;Min_cycle;Max_cycle;Signal;HPM_P1;HPM_P2
2023/11/11 00:01:58;;;;;;;1999.90;999.90;;;7.10;99.90;;;;;;5054861;28;20166;-67
2023/11/11 00:04:25;;;;;;;1999.90;999.90;;;7.00;99.90;;;;;;5054676;28;20472;-67
2023/11/11 00:06:50;;;;;;;1999.90;999.90;;;7.10;99.90;;;;;;5054534;28;20237;-67
2023/11/11 00:09:18;;;;;;;1999.90;999.90;;;7.10;99.90;;;;;;5054806;28;20407;-67
2023/11/11 00:11:44;;;;;;;1999.90;999.90;;;7.10;99.90;;;;;;5054785;28;20788;-66
2023/11/11 00:14:11;;;;;;;1999.90;999.90;;;7.10;99.90;;;;;;5054504;28;20438;-66
2023/11/11 00:16:37;;;;;;;1999.90;999.90;;;7.10;99.90;;;;;;5036704;28;20435;-67
2023/11/11 00:19:02;;;;;;;1999.90;999.90;;;7.10;99.90;;;;;;5054590;28;20398;-67
2023/11/11 00:21:28;;;;;;;1999.90;999.90;;;7.10;99.90;;;;;;5054887;28;20171;-67
2023/11/11 00:23:57;;;;;;;1999.90;999.90;;;7.10;99.90;;;;;;5054230;28;20191;-66
2023/11/11 00:26:23;;;;;;;1999.90;999.90;;;7.10;99.90;;;;;;5054695;28;20433;-67
2023/11/11 00:28:49;;;;;;;1999.90;999.90;;;7.20;99.90;;;;;;5054522;28;20784;-67
2023/11/11 00:31:16;;;;;;;1999.90;999.90;;;7.20;99.90;;;;;;5054307;28;20402;-66
2023/11/11 00:33:42;;;;;;;1999.90;999.90;;;7.20;99.90;;;;;;5054159;28;20610;-66
2023/11/11 00:36:12;;;;;;;1999.90;999.90;;;7.30;99.90;;;;;;5054047;28;20952;-67
2023/11/11 00:38:37;;;;;;;1999.90;999.90;;;7.20;99.90;;;;;;5054250;28;20414;-67
2023/11/11 00:41:03;;;;;;;1999.90;999.90;;;7.20;99.90;;;;;;5054240;28;20410;-67
2023/11/11 00:43:30;;;;;;;1999.90;999.90;;;7.20;99.90;;;;;;5053896;28;20452;-67
2023/11/11 00:45:55;;;;;;;1999.90;999.90;;;7.20;99.90;;;;;;5053954;28;20585;-67
2023/11/11 00:48:23;;;;;;;1999.90;999.90;;;7.20;99.90;;;;;;5052921;28;20483;-67
2023/11/11 00:50:49;;;;;;;1999.90;999.90;;;7.20;99.90;;;;;;5053801;28;20402;-67
2023/11/11 00:53:14;;;;;;;1999.90;999.90;;;7.30;99.90;;;;;;5053799;28;20472;-67
2023/11/11 00:55:40;;;;;;;1999.90;999.90;;;7.30;99.90;;;;;;5054004;28;20185;-66
2023/11/11 00:58:06;;;;;;;1999.90;999.90;;;7.30;99.90;;;;;;5053991;28;20167;-66
2023/11/11 01:00:32;;;;;;;1999.90;999.90;;;7.30;99.90;;;;;;5053936;28;20406;-66
2023/11/11 01:02:58;;;;;;;1999.90;999.90;;;7.40;99.90;;;;;;5053698;28;20171;-67
2023/11/11 01:05:25;;;;;;;1999.90;999.90;;;7.40;99.90;;;;;;5053673;28;20480;-67
2023/11/11 01:07:51;;;;;;;1999.90;999.90;;;7.40;99.90;;;;;;5053765;28;20398;-66
2023/11/11 01:10:22;;;;;;;1999.90;999.90;;;7.40;99.90;;;;;;5053653;28;20436;-67
2023/11/11 01:12:49;;;;;;;1999.90;999.90;;;7.40;99.90;;;;;;5053584;28;20219;-66
2023/11/11 01:15:14;;;;;;;1999.90;999.90;;;7.40;99.90;;;;;;5053452;28;20839;-66
2023/11/11 01:17:40;;;;;;;1999.90;999.90;;;7.40;99.90;;;;;;5053729;28;20476;-66
2023/11/11 01:20:07;;;;;;;1999.90;999.90;;;7.40;99.90;;;;;;5053383;28;20298;-66
2023/11/11 01:22:32;;;;;;;1999.90;999.90;;;7.40;99.90;;;;;;5053860;28;20394;-66
2023/11/11 01:24:58;;;;;;;1999.90;999.90;;;7.70;99.90;;;;;;5053702;28;20450;-67
2023/11/11 01:27:24;;;;;;;1999.90;999.90;;;7.40;99.90;;;;;;5053561;28;20198;-66
2023/11/11 01:29:49;;;;;;;1999.90;999.90;;;7.30;99.90;;;;;;5053330;28;20257;-66
2023/11/11 01:32:17;;;;;;;1999.90;999.90;;;7.30;99.90;;;;;;5053372;28;20697;-66
2023/11/11 01:34:43;;;;;;;1999.90;999.90;;;7.30;99.90;;;;;;5053161;28;20632;-67
2023/11/11 01:37:09;;;;;;;1999.90;999.90;;;7.40;99.90;;;;;;5035777;28;20880;-67
2023/11/11 01:39:35;;;;;;;1999.90;999.90;;;7.30;99.90;;;;;;5053358;28;20513;-66
2023/11/11 01:42:01;;;;;;;1999.90;999.90;;;7.30;99.90;;;;;;5053885;28;20406;-66
2023/11/11 01:44:27;;;;;;;1999.90;999.90;;;7.30;99.90;;;;;;5053464;28;20445;-66
2023/11/11 01:46:53;;;;;;;1999.90;999.90;;;7.30;99.90;;;;;;5053074;28;20274;-67
2023/11/11 01:49:21;;;;;;;1999.90;999.90;;;7.30;99.90;;;;;;5053059;28;20164;-66
2023/11/11 01:51:49;;;;;;;1999.90;999.90;;;7.30;99.90;;;;;;5053416;28;20423;-67
2023/11/11 01:54:16;;;;;;;1999.90;999.90;;;7.30;99.90;;;;;;5053508;28;20406;-66
2023/11/11 01:56:42;;;;;;;1999.90;999.90;;;7.30;99.90;;;;;;5052857;28;20470;-66
2023/11/11 01:59:08;;;;;;;1999.90;999.90;;;7.30;99.90;;;;;;5052681;28;20456;-66
2023/11/11 02:01:34;;;;;;;1999.90;999.90;;;7.30;99.90;;;;;;5053222;28;20451;-66
2023/11/11 02:04:00;;;;;;;1999.90;999.90;;;7.40;99.90;;;;;;5053776;28;20200;-66
2023/11/11 02:06:26;;;;;;;1999.90;999.90;;;7.40;99.90;;;;;;5053520;28;20437;-66
2023/11/11 02:08:52;;;;;;;1999.90;999.90;;;7.30;99.90;;;;;;5052944;28;20168;-67
2023/11/11 02:11:18;;;;;;;1999.90;999.90;;;7.30;99.90;;;;;;5053258;28;20399;-66
2023/11/11 02:13:47;;;;;;;1999.90;999.90;;;7.40;99.90;;;;;;5052702;28;20175;-66
2023/11/11 02:16:14;;;;;;;1999.90;999.90;;;7.40;99.90;;;;;;5052481;28;20192;-66
2023/11/11 02:18:40;;;;;;;1999.90;999.90;;;7.40;99.90;;;;;;5053030;28;20402;-66
2023/11/11 02:21:08;;;;;;;1999.90;999.90;;;7.40;99.90;;;;;;5052701;28;20426;-67
2023/11/11 02:23:35;;;;;;;1999.90;999.90;;;7.40;99.90;;;;;;5052267;28;20506;-65
2023/11/11 02:26:02;;;;;;;1999.90;999.90;;;7.30;99.90;;;;;;5053359;28;21010;-66
2023/11/11 02:28:28;;;;;;;1999.90;999.90;;;7.30;99.90;;;;;;5052536;28;20410;-66
2023/11/11 02:30:54;;;;;;;1999.90;999.90;;;7.30;99.90;;;;;;5052791;28;20433;-66
2023/11/11 02:33:20;;;;;;;1999.90;999.90;;;7.40;99.90;;;;;;5052271;28;20446;-67
2023/11/11 02:35:46;;;;;;;1999.90;999.90;;;7.40;99.90;;;;;;5052742;28;20983;-66
2023/11/11 02:38:14;;;;;;;1999.90;999.90;;;7.40;99.90;;;;;;5052276;28;20406;-66
2023/11/11 02:40:40;;;;;;;1999.90;999.90;;;7.40;99.90;;;;;;5053371;28;20239;-66
2023/11/11 02:43:07;;;;;;;1999.90;999.90;;;7.40;99.90;;;;;;5052088;28;20499;-66
2023/11/11 02:45:32;;;;;;;1999.90;999.90;;;7.40;99.90;;;;;;5052603;28;20425;-67
2023/11/11 02:47:58;;;;;;;1999.90;999.90;;;7.50;99.90;;;;;;5052875;28;20548;-66
2023/11/11 02:50:24;;;;;;;1999.90;999.90;;;7.50;99.90;;;;;;5052658;28;20161;-65
2023/11/11 02:52:50;;;;;;;1999.90;999.90;;;7.50;99.90;;;;;;5052126;28;20168;-66
2023/11/11 02:55:18;;;;;;;1999.90;999.90;;;7.70;99.90;;;;;;5052224;28;20797;-66
2023/11/11 02:57:45;;;;;;;1999.90;999.90;;;7.50;99.90;;;;;;5052296;28;20433;-66
2023/11/11 03:00:11;;;;;;;1999.90;999.90;;;7.50;99.90;;;;;;5051709;28;20468;-66
2023/11/11 03:02:37;;;;;;;1999.90;999.90;;;7.40;99.90;;;;;;5051479;28;20406;-66
2023/11/11 03:05:04;;;;;;;1999.90;999.90;;;7.40;99.90;;;;;;5051601;28;20449;-66
2023/11/11 03:07:30;;;;;;;1999.90;999.90;;;7.30;99.90;;;;;;5051768;28;20739;-66
2023/11/11 03:09:56;;;;;;;1999.90;999.90;;;7.30;99.90;;;;;;5051714;28;20456;-66
2023/11/11 03:12:22;;;;;;;1999.90;999.90;;;7.40;99.90;;;;;;5035200;28;20176;-67
2023/11/11 03:14:48;;;;;;;1999.90;999.90;;;7.30;99.90;;;;;;5055578;28;20410;-66
2023/11/11 03:17:13;;;;;;;1999.90;999.90;;;7.30;99.90;;;;;;5055782;28;20172;-66
2023/11/11 03:19:40;;;;;;;1999.90;999.90;;;7.30;99.90;;;;;;5055780;28;20163;-66
2023/11/11 03:22:06;;;;;;;1999.90;999.90;;;7.30;99.90;;;;;;5055635;28;20168;-67
2023/11/11 03:24:31;;;;;;;1999.90;999.90;;;7.30;99.90;;;;;;5055345;28;20960;-66
2023/11/11 03:26:57;;;;;;;1999.90;999.90;;;7.20;99.90;;;;;;5055481;28;20195;-65
2023/11/11 03:29:23;;;;;;;1999.90;999.90;;;7.20;99.90;;;;;;5055518;28;20690;-66
2023/11/11 03:31:48;;;;;;;1999.90;999.90;;;7.20;99.90;;;;;;5055537;28;20409;-67
2023/11/11 03:34:14;;;;;;;1999.90;999.90;;;7.20;99.90;;;;;;5055255;28;20194;-66
2023/11/11 03:36:40;;;;;;;1999.90;999.90;;;7.20;99.90;;;;;;5055257;28;20282;-66
2023/11/11 03:39:05;;;;;;;1999.90;999.90;;;7.20;99.90;;;;;;5037437;28;20172;-66
2023/11/11 03:41:31;;;;;;;1999.90;999.90;;;7.30;99.90;;;;;;5055257;28;20796;-65
2023/11/11 03:43:56;;;;;;;1999.90;999.90;;;7.20;99.90;;;;;;5054933;28;20210;-66
2023/11/11 03:46:22;;;;;;;1999.90;999.90;;;7.20;99.90;;;;;;5055137;28;20544;-66
2023/11/11 03:48:47;;;;;;;1999.90;999.90;;;7.20;99.90;;;;;;5055130;28;20541;-66
2023/11/11 03:51:13;;;;;;;1999.90;999.90;;;7.20;99.90;;;;;;5055225;28;20159;-66
2023/11/11 03:53:39;;;;;;;1999.90;999.90;;;7.50;99.90;;;;;;5054938;28;20176;-66
2023/11/11 03:56:07;;;;;;;1999.90;999.90;;;7.10;99.90;;;;;;5037039;28;20191;-67
2023/11/11 03:58:33;;;;;;;1999.90;999.90;;;7.20;99.90;;;;;;5054765;28;20243;-66
2023/11/11 04:01:00;;;;;;;1999.90;999.90;;;7.10;99.90;;;;;;5037131;28;20492;-66
2023/11/11 04:03:25;;;;;;;1999.90;999.90;;;7.10;99.90;;;;;;5051702;28;20832;-66
2023/11/11 04:05:51;;;;;;;1999.90;999.90;;;7.10;99.90;;;;;;5054420;28;20282;-66
2023/11/11 04:08:17;;;;;;;1999.90;999.90;;;7.10;99.90;;;;;;5054457;28;20250;-65
2023/11/11 04:10:42;;;;;;;1999.90;999.90;;;7.10;99.90;;;;;;5054382;28;20194;-66
2023/11/11 04:13:09;;;;;;;1999.90;999.90;;;7.10;99.90;;;;;;5054107;28;20164;-66
2023/11/11 04:15:34;;;;;;;1999.90;999.90;;;7.10;99.90;;;;;;5054329;28;20223;-66
2023/11/11 04:18:00;;;;;;;1999.90;999.90;;;7.10;99.90;;;;;;5054155;28;20901;-66
2023/11/11 04:20:26;;;;;;;1999.90;999.90;;;7.00;99.90;;;;;;5054304;28;20164;-66
2023/11/11 04:22:51;;;;;;;1999.90;999.90;;;7.10;99.90;;;;;;5053577;28;20254;-66
2023/11/11 04:25:17;;;;;;;1999.90;999.90;;;7.10;99.90;;;;;;5053665;28;20224;-66
2023/11/11 04:27:44;;;;;;;1999.90;999.90;;;7.10;99.90;;;;;;5054307;28;20224;-65
2023/11/11 04:30:10;;;;;;;1999.90;999.90;;;7.10;99.90;;;;;;5054245;28;20733;-66
2023/11/11 04:32:37;;;;;;;1999.90;999.90;;;7.10;99.90;;;;;;5053542;28;20433;-65
2023/11/11 04:35:03;;;;;;;1999.90;999.90;;;7.20;99.90;;;;;;5053603;28;20410;-66
2023/11/11 04:37:30;;;;;;;1999.90;999.90;;;7.10;99.90;;;;;;5101199;22;20484;-67
2023/11/11 04:39:57;;;;;;;1999.90;999.90;;;7.10;99.90;;;;;;5064845;28;20403;-67
2023/11/11 04:42:24;;;;;;;1999.90;999.90;;;7.10;99.90;;;;;;5053495;28;20402;-68
2023/11/11 04:44:51;;;;;;;1999.90;999.90;;;7.10;99.90;;;;;;5053187;28;20462;-67
2023/11/11 04:47:18;;;;;;;1999.90;999.90;;;7.10;99.90;;;;;;5039737;28;20426;-68
2023/11/11 04:49:43;;;;;;;1999.90;999.90;;;7.10;99.90;;;;;;5033634;28;20993;-68
2023/11/11 04:52:10;;;;;;;1999.90;999.90;;;7.10;99.90;;;;;;5033304;28;20502;-68
2023/11/11 04:54:35;;;;;;;1999.90;999.90;;;7.10;99.90;;;;;;5033072;28;20165;-68
2023/11/11 04:57:01;;;;;;;1999.90;999.90;;;7.10;99.90;;;;;;5033319;28;20441;-67
2023/11/11 04:59:28;;;;;;;1999.90;999.90;;;7.10;99.90;;;;;;5033207;28;20662;-67
2023/11/11 05:01:54;;;;;;;1999.90;999.90;;;7.10;99.90;;;;;;5033134;28;20430;-66
2023/11/11 05:04:21;;;;;;;1999.90;999.90;;;7.10;99.90;;;;;;5032512;28;20442;-67
2023/11/11 05:06:46;;;;;;;1999.90;999.90;;;7.00;99.90;;;;;;5048496;28;20414;-67
2023/11/11 05:09:12;;;;;;;1999.90;999.90;;;6.90;99.90;;;;;;5052840;28;20418;-67
2023/11/11 05:11:38;;;;;;;1999.90;999.90;;;6.80;99.90;;;;;;5052767;28;20168;-67
2023/11/11 05:14:09;;;;;;;1999.90;999.90;;;6.80;99.90;;;;;;5052301;28;20195;-67
2023/11/11 05:16:44;;;;;;;1999.90;999.90;;;6.80;99.90;;;;;;5052737;28;20426;-66
2023/11/11 05:19:11;;;;;;;1999.90;999.90;;;6.80;99.90;;;;;;5052650;28;20445;-67
2023/11/11 05:21:37;;;;;;;1999.90;999.90;;;6.80;99.90;;;;;;5053052;28;20780;-67
2023/11/11 05:24:05;;;;;;;1999.90;999.90;;;6.80;99.90;;;;;;5052151;28;20453;-68
2023/11/11 05:26:31;;;;;;;1999.90;999.90;;;6.90;99.90;;;;;;5052560;28;20190;-68
2023/11/11 05:28:57;;;;;;;1999.90;999.90;;;6.90;99.90;;;;;;5052619;28;20413;-68
2023/11/11 05:31:23;;;;;;;1999.90;999.90;;;6.90;99.90;;;;;;5052493;28;20409;-68
2023/11/11 05:33:50;;;;;;;1999.90;999.90;;;7.00;99.90;;;;;;5051966;28;20819;-67
2023/11/11 05:36:16;;;;;;;1999.90;999.90;;;6.80;99.90;;;;;;5048014;28;20457;-67
2023/11/11 05:38:42;;;;;;;1999.90;999.90;;;6.80;99.90;;;;;;5046824;28;20423;-68
2023/11/11 05:41:08;;;;;;;1999.90;999.90;;;6.80;99.90;;;;;;5043317;28;20430;-68
2023/11/11 05:43:34;;;;;;;1999.90;999.90;;;6.70;99.90;;;;;;5042520;28;20821;-68
2023/11/11 05:46:00;;;;;;;1999.90;999.90;;;6.70;99.90;;;;;;5050204;28;20449;-68
2023/11/11 05:48:25;;;;;;;1999.90;999.90;;;6.70;99.90;;;;;;5052466;28;20171;-68
2023/11/11 05:50:51;;;;;;;1999.90;999.90;;;6.70;99.90;;;;;;5052602;28;20418;-68
2023/11/11 05:53:17;;;;;;;1999.90;999.90;;;6.70;99.90;;;;;;5052184;28;20203;-68
2023/11/11 05:55:43;;;;;;;1999.90;999.90;;;6.40;99.90;;;;;;5052412;28;20254;-68
2023/11/11 05:58:09;;;;;;;1999.90;999.90;;;6.70;99.90;;;;;;5052424;28;20936;-67
2023/11/11 06:00:38;;;;;;;1999.90;999.90;;;6.70;99.90;;;;;;5052591;28;20406;-67
2023/11/11 06:03:05;;;;;;;1999.90;999.90;;;6.70;99.90;;;;;;5052215;28;20191;-67
2023/11/11 06:05:31;;;;;;;1999.90;999.90;;;6.70;99.90;;;;;;5052389;28;20462;-67
2023/11/11 06:07:56;;;;;;;1999.90;999.90;;;6.70;99.90;;;;;;5052325;28;20414;-68
2023/11/11 06:10:23;;;;;;;1999.90;999.90;;;6.70;99.90;;;;;;5052256;28;20468;-68
2023/11/11 06:12:49;;;;;;;1999.90;999.90;;;6.60;99.90;;;;;;5052137;28;20258;-68
2023/11/11 06:15:15;;;;;;;1999.90;999.90;;;6.60;99.90;;;;;;5052296;28;20410;-67
2023/11/11 06:17:40;;;;;;;1999.90;999.90;;;6.50;99.90;;;;;;5052168;28;20207;-68
2023/11/11 06:20:08;;;;;;;1999.90;999.90;;;6.50;99.90;;;;;;5052384;28;20171;-67
2023/11/11 06:22:33;;;;;;;1999.90;999.90;;;6.50;99.90;;;;;;5052313;28;20187;-67
2023/11/11 06:24:59;;;;;;;1999.90;999.90;;;6.50;99.90;;;;;;5051995;28;20825;-67
2023/11/11 06:27:25;;;;;;;1999.90;999.90;;;6.40;99.90;;;;;;5052165;28;20198;-67
2023/11/11 06:29:50;;;;;;;1999.90;999.90;;;6.40;99.90;;;;;;5052093;28;20488;-67
2023/11/11 06:32:16;;;;;;;1999.90;999.90;;;6.40;99.90;;;;;;5052046;28;20175;-67
2023/11/11 06:34:42;;;;;;;1999.90;999.90;;;6.40;99.90;;;;;;5051854;28;20179;-68
2023/11/11 06:37:07;;;;;;;1999.90;999.90;;;6.40;99.90;;;;;;5051877;28;20210;-67
2023/11/11 06:39:33;;;;;;;1999.90;999.90;;;6.40;99.90;;;;;;5052058;28;20179;-67
2023/11/11 06:41:59;;;;;;;1999.90;999.90;;;6.30;99.90;;;;;;5052047;28;20452;-67
2023/11/11 06:44:25;;;;;;;1999.90;999.90;;;6.30;99.90;;;;;;5051835;28;20562;-68
2023/11/11 06:46:51;;;;;;;1999.90;999.90;;;6.30;99.90;;;;;;5051860;28;20426;-68
2023/11/11 06:49:17;;;;;;;1999.90;999.90;;;6.30;99.90;;;;;;5051906;28;20168;-67
2023/11/11 06:51:42;;;;;;;1999.90;999.90;;;6.30;99.90;;;;;;5051826;28;20241;-67
2023/11/11 06:54:09;;;;;;;1999.90;999.90;;;6.30;99.90;;;;;;5051609;28;20402;-68
2023/11/11 06:56:35;;;;;;;1999.90;999.90;;;6.30;99.90;;;;;;5051718;28;20223;-68
2023/11/11 06:59:02;;;;;;;1999.90;999.90;;;6.20;99.90;;;;;;5051722;28;20418;-68
2023/11/11 07:01:29;;;;;;;1999.90;999.90;;;6.20;99.90;;;;;;5051603;28;20480;-67
2023/11/11 07:03:57;;;;;;;1999.90;999.90;;;6.20;99.90;;;;;;5051264;28;20445;-68
2023/11/11 07:06:23;;;;;;;1999.90;999.90;;;6.20;99.90;;;;;;5051726;28;20937;-68
2023/11/11 07:08:50;;;;;;;1999.90;999.90;;;6.20;99.90;;;;;;5051685;28;20398;-67
2023/11/11 07:11:17;;;;;;;1999.90;999.90;;;6.30;99.90;;;;;;5051608;28;20909;-68
2023/11/11 07:13:44;;;;;;;1999.90;999.90;;;6.30;99.90;;;;;;5051361;28;20406;-68
2023/11/11 07:16:12;;;;;;;1999.90;999.90;;;6.30;99.90;;;;;;5051494;28;20450;-67
2023/11/11 07:18:39;;;;;;;1999.90;999.90;;;6.30;99.90;;;;;;5051396;28;20410;-68
2023/11/11 07:21:05;;;;;;;1999.90;999.90;;;6.30;99.90;;;;;;5051528;28;20456;-68
2023/11/11 07:23:31;;;;;;;1999.90;999.90;;;6.30;99.90;;;;;;5051113;28;20409;-68
2023/11/11 07:25:57;;;;;;;1999.90;999.90;;;6.50;99.90;;;;;;5051390;28;20178;-68
2023/11/11 07:28:24;;;;;;;1999.90;999.90;;;6.40;99.90;;;;;;5047630;28;20418;-68
2023/11/11 07:30:51;;;;;;;1999.90;999.90;;;6.50;99.90;;;;;;5032054;28;20422;-68
2023/11/11 07:33:17;;;;;;;1999.90;999.90;;;;;;;;;;5051041;28;20410;-69
2023/11/11 07:35:43;;;;;;;1999.90;999.90;;;;;;;;;;5069661;28;20437;-68
2023/11/11 07:38:09;;;;;;;1999.90;999.90;;;6.60;99.90;;;;;;5058934;28;20909;-68
2023/11/11 07:40:34;;;;;;;1999.90;999.90;;;6.60;99.90;;;;;;5051212;28;20507;-67
2023/11/11 07:43:00;;;;;;;1999.90;999.90;;;6.70;99.90;;;;;;5050872;28;20175;-69
2023/11/11 07:45:25;;;;;;;1999.90;999.90;;;6.70;99.90;;;;;;5042813;28;20196;-67
2023/11/11 07:47:52;;;;;;;1999.90;999.90;;;6.70;99.90;;;;;;5051115;28;20199;-67
2023/11/11 07:50:19;;;;;;;1999.90;999.90;;;6.70;99.90;;;;;;5051018;28;20206;-67
2023/11/11 07:52:45;;;;;;;1999.90;999.90;;;6.70;99.90;;;;;;5050833;28;20402;-67
2023/11/11 07:55:11;;;;;;;1999.90;999.90;;;6.80;99.90;;;;;;5050966;28;20437;-67
2023/11/11 07:57:36;;;;;;;1999.90;999.90;;;6.80;99.90;;;;;;5051310;28;20430;-67
2023/11/11 08:00:06;;;;;;;1999.90;999.90;;;6.80;99.90;;;;;;5054983;28;20449;-67
2023/11/11 08:02:32;;;;;;;1999.90;999.90;;;6.90;99.90;;;;;;5054715;28;20183;-67
2023/11/11 08:04:57;;;;;;;1999.90;999.90;;;7.00;99.90;;;;;;5054506;28;20462;-67
2023/11/11 08:07:23;;;;;;;1999.90;999.90;;;7.10;99.90;;;;;;5043778;28;20442;-67
2023/11/11 08:09:50;;;;;;;1999.90;999.90;;;7.10;99.90;;;;;;5035059;28;20589;-68
2023/11/11 08:12:17;;;;;;;1999.90;999.90;;;7.10;99.90;;;;;;5034658;28;20178;-67
2023/11/11 08:14:42;;;;;;;1999.90;999.90;;;7.20;99.90;;;;;;5034551;28;20973;-68
2023/11/11 08:17:08;;;;;;;1999.90;999.90;;;7.20;99.90;;;;;;5034523;28;20518;-67
2023/11/11 08:19:33;;;;;;;1999.90;999.90;;;7.20;99.90;;;;;;5034769;28;20811;-67
2023/11/11 08:21:59;;;;;;;1999.90;999.90;;;7.30;99.90;;;;;;5034672;28;20238;-67
2023/11/11 08:24:25;;;;;;;1999.90;999.90;;;7.40;99.90;;;;;;5034156;28;20208;-68
2023/11/11 08:26:50;;;;;;;1999.90;999.90;;;7.40;99.90;;;;;;5034474;28;20545;-66
2023/11/11 08:29:16;;;;;;;1999.90;999.90;;;7.30;99.90;;;;;;5034478;28;20215;-67
2023/11/11 08:31:42;;;;;;;1999.90;999.90;;;7.40;99.90;;;;;;5034553;28;20172;-67
2023/11/11 08:34:08;;;;;;;1999.90;999.90;;;7.40;99.90;;;;;;5034232;28;20182;-67
2023/11/11 08:36:36;;;;;;;1999.90;999.90;;;7.50;99.90;;;;;;5034093;28;20860;-67
2023/11/11 08:39:02;;;;;;;1999.90;999.90;;;7.50;99.90;;;;;;5034501;28;20455;-67
2023/11/11 08:41:28;;;;;;;1999.90;999.90;;;7.60;99.90;;;;;;5045301;28;20425;-67
2023/11/11 08:43:53;;;;;;;1999.90;999.90;;;7.50;99.90;;;;;;5053920;28;20454;-67
2023/11/11 08:46:19;;;;;;;1999.90;999.90;;;7.40;99.90;;;;;;5050777;28;20201;-67
2023/11/11 08:48:45;;;;;;;1999.90;999.90;;;7.50;99.90;;;;;;5049130;28;20181;-67
2023/11/11 08:51:14;;;;;;;1999.90;999.90;;;7.50;99.90;;;;;;5051127;28;20172;-67
2023/11/11 08:53:39;;;;;;;1999.90;999.90;;;7.50;99.90;;;;;;5053473;28;20179;-67
2023/11/11 08:56:06;;;;;;;1999.90;999.90;;;7.50;99.90;;;;;;5054027;28;20438;-67
2023/11/11 08:58:32;;;;;;;1999.90;999.90;;;7.50;99.90;;;;;;5045768;28;20255;-67
2023/11/11 09:00:59;;;;;;;1999.90;999.90;;;7.60;99.90;;;;;;5054013;28;20457;-66
2023/11/11 09:03:26;;;;;;;1999.90;999.90;;;7.60;99.90;;;;;;5053612;28;20179;-67
2023/11/11 09:05:51;;;;;;;1999.90;999.90;;;7.90;99.90;;;;;;5049251;28;20414;-67
2023/11/11 09:08:17;;;;;;;1999.90;999.90;;;7.70;99.90;;;;;;5053692;28;20928;-68
2023/11/11 09:10:43;;;;;;;1999.90;999.90;;;7.70;99.90;;;;;;5052543;28;20214;-67
2023/11/11 09:13:10;;;;;;;1999.90;999.90;;;7.70;99.90;;;;;;5053623;28;20171;-67
2023/11/11 09:15:37;;;;;;;1999.90;999.90;;;7.80;99.90;;;;;;5053829;28;20190;-67
2023/11/11 09:18:03;;;;;;;1999.90;999.90;;;7.90;99.90;;;;;;5053623;28;20430;-67
2023/11/11 09:20:29;;;;;;;1999.90;999.90;;;7.90;99.90;;;;;;5053378;28;20410;-67
2023/11/11 09:22:56;;;;;;;1999.90;999.90;;;8.00;99.90;;;;;;5053209;28;20425;-67
2023/11/11 09:25:22;;;;;;;1999.90;999.90;;;8.00;99.90;;;;;;5053381;28;20212;-66
2023/11/11 09:27:47;;;;;;;1999.90;999.90;;;8.10;99.90;;;;;;5053269;28;20480;-67
2023/11/11 09:30:13;;;;;;;1999.90;999.90;;;8.20;99.90;;;;;;5053207;28;20414;-65
2023/11/11 09:32:39;;;;;;;1999.90;999.90;;;8.30;99.90;;;;;;5049278;28;20229;-65
2023/11/11 09:35:06;;;;;;;1999.90;999.90;;;8.20;99.90;;;;;;5047751;28;20423;-66
2023/11/11 09:37:32;;;;;;;1999.90;999.90;;;8.30;99.90;;;;;;5048046;28;20824;-67
2023/11/11 09:39:58;;;;;;;1999.90;999.90;;;8.30;99.90;;;;;;5048660;28;20500;-66
2023/11/11 09:42:24;;;;;;;1999.90;999.90;;;8.30;99.90;;;;;;5048370;28;20426;-66
2023/11/11 09:44:49;;;;;;;1999.90;999.90;;;8.30;99.90;;;;;;5048155;28;20214;-68
2023/11/11 09:47:21;;;;;;;1999.90;999.90;;;8.30;99.90;;;;;;5045847;28;20672;-65
2023/11/11 09:49:47;;;;;;;1999.90;999.90;;;8.40;99.90;;;;;;5047903;28;20264;-66
2023/11/11 09:52:13;;;;;;;1999.90;999.90;;;8.40;99.90;;;;;;5048695;28;20525;-67
2023/11/11 09:54:42;;;;;;;1999.90;999.90;;;8.50;99.90;;;;;;5048072;28;20168;-66
2023/11/11 09:57:10;;;;;;;1999.90;999.90;;;8.50;99.90;;;;;;5048051;28;20941;-65
2023/11/11 09:59:37;;;;;;;1999.90;999.90;;;8.70;99.90;;;;;;5048198;28;20418;-68
2023/11/11 10:02:04;;;;;;;1999.90;999.90;;;8.60;99.90;;;;;;5048845;28;20522;-65
2023/11/11 10:04:29;;;;;;;1999.90;999.90;;;8.60;99.90;;;;;;5049251;28;20460;-66
2023/11/11 10:06:56;;;;;;;1999.90;999.90;;;8.60;99.90;;;;;;5050006;28;20549;-65
2023/11/11 10:09:23;;;;;;;1999.90;999.90;;;8.60;99.90;;;;;;5048810;28;20177;-65
2023/11/11 10:11:51;;;;;;;1999.90;999.90;;;8.60;99.90;;;;;;5047742;28;20494;-66
2023/11/11 10:14:21;;;;;;;1999.90;999.90;;;8.60;99.90;;;;;;5048577;28;20415;-67
2023/11/11 10:16:48;;;;;;;1999.90;999.90;;;8.60;99.90;;;;;;5049409;28;20825;-66
2023/11/11 10:19:17;;;;;;;1999.90;999.90;;;8.70;99.90;;;;;;5049287;28;20420;-65
2023/11/11 10:21:42;;;;;;;1999.90;999.90;;;8.50;99.90;;;;;;5048244;28;20418;-66
2023/11/11 10:24:10;;;;;;;1999.90;999.90;;;8.50;99.90;;;;;;5049102;28;20448;-66
2023/11/11 10:26:39;;;;;;;1999.90;999.90;;;8.50;99.90;;;;;;5048918;28;20247;-65
2023/11/11 10:29:06;;;;;;;1999.90;999.90;;;8.50;99.90;;;;;;5049449;28;20439;-66
2023/11/11 10:31:39;;;;;;;1999.90;999.90;;;8.60;99.90;;;;;;5049925;28;20423;-67
2023/11/11 10:34:05;;;;;;;1999.90;999.90;;;8.60;99.90;;;;;;5049761;28;20442;-65
2023/11/11 10:36:45;;;;;;;1999.90;999.90;;;8.90;99.90;;;;;;5048699;28;20468;-66
2023/11/11 10:39:11;;;;;;;1999.90;999.90;;;9.20;99.90;;;;;;5041419;28;20209;-67
2023/11/11 10:41:37;;;;;;;1999.90;999.90;;;9.30;99.90;;;;;;5047538;28;20457;-66
2023/11/11 10:44:07;;;;;;;1999.90;999.90;;;9.40;99.90;;;;;;5047948;28;20968;-65
2023/11/11 10:46:36;;;;;;;1999.90;999.90;;;9.40;99.90;;;;;;5048711;28;20434;-67
2023/11/11 10:49:04;;;;;;;1999.90;999.90;;;9.50;99.90;;;;;;5047302;28;20417;-66
2023/11/11 10:51:30;;;;;;;1999.90;999.90;;;9.60;99.90;;;;;;5047556;28;20420;-66
2023/11/11 10:53:59;;;;;;;1999.90;999.90;;;9.60;99.90;;;;;;5047754;28;20440;-65
2023/11/11 10:56:27;;;;;;;1999.90;999.90;;;9.70;99.90;;;;;;5029684;28;20446;-67
2023/11/11 10:58:54;;;;;;;1999.90;999.90;;;9.70;99.90;;;;;;5047081;28;20420;-67
2023/11/11 11:01:21;;;;;;;1999.90;999.90;;;9.60;99.90;;;;;;5047751;28;20434;-65
2023/11/11 11:03:48;;;;;;;1999.90;999.90;;;9.60;99.90;;;;;;5047607;28;20454;-67
2023/11/11 11:06:23;;;;;;;1999.90;999.90;;;9.60;99.90;;;;;;5047198;28;20839;-66
2023/11/11 11:09:14;;;;;;;1999.90;999.90;;;9.90;99.90;;;;;;5046972;28;20464;-67
2023/11/11 11:11:51;;;;;;;1999.90;999.90;;;9.90;99.90;;;;;;5048196;28;20429;-66
2023/11/11 11:14:31;;;;;;;1999.90;999.90;;;9.90;99.90;;;;;;5047782;28;20415;-66
2023/11/11 11:17:00;;;;;;;1999.90;999.90;;;9.90;99.90;;;;;;5047644;28;20843;-66
2023/11/11 11:19:25;;;;;;;1999.90;999.90;;;9.80;99.90;;;;;;5047532;28;20827;-66
2023/11/11 11:21:52;;;;;;;1999.90;999.90;;;9.70;99.90;;;;;;5047140;28;20426;-67
2023/11/11 11:24:18;;;;;;;1999.90;999.90;;;9.60;99.90;;;;;;5047276;28;20191;-64
2023/11/11 11:26:44;;;;;;;1999.90;999.90;;;9.50;99.90;;;;;;5047139;28;21177;-66
2023/11/11 11:29:13;;;;;;;1999.90;999.90;;;9.50;99.90;;;;;;5047291;28;20426;-67
2023/11/11 11:32:07;;;;;;;1999.90;999.90;;;9.50;99.90;;;;;;5048038;28;20182;-65
2023/11/11 11:35:03;;;;;;;1999.90;999.90;;;9.60;99.90;;;;;;5051360;28;20416;-67
2023/11/11 11:37:30;;;;;;;1999.90;999.90;;;9.60;99.90;;;;;;5051035;28;20971;-66
2023/11/11 11:40:17;;;;;;;1999.90;999.90;;;9.70;99.90;;;;;;5050785;28;20524;-67
2023/11/11 11:42:49;;;;;;;1999.90;999.90;;;9.60;99.90;;;;;;5050134;28;20500;-65
2023/11/11 11:45:15;;;;;;;1999.90;999.90;;;9.60;99.90;;;;;;5048947;28;20968;-63
2023/11/11 11:47:41;;;;;;;1999.90;999.90;;;9.70;99.90;;;;;;5050350;28;20425;-65
2023/11/11 11:50:07;;;;;;;1999.90;999.90;;;9.60;99.90;;;;;;5048925;28;20199;-66
2023/11/11 11:52:37;;;;;;;1999.90;999.90;;;9.80;99.90;;;;;;5049648;28;20403;-65
2023/11/11 11:55:05;;;;;;;1999.90;999.90;;;9.90;99.90;;;;;;5050069;28;21004;-67
2023/11/11 11:57:30;;;;;;;1999.90;999.90;;;10.00;99.90;;;;;;5031589;28;20433;-67
2023/11/11 12:00:09;;;;;;;1999.90;999.90;;;10.10;99.90;;;;;;5049222;28;20509;-64
2023/11/11 12:02:37;;;;;;;1999.90;999.90;;;10.00;99.90;;;;;;5048696;28;20206;-66
2023/11/11 12:05:10;;;;;;;1999.90;999.90;;;9.90;99.90;;;;;;5048720;28;20884;-67
2023/11/11 12:07:37;;;;;;;1999.90;999.90;;;9.80;99.90;;;;;;5049999;28;20506;-66